Braden, Tennessee
Current Conditions -  °F | °C
As of 6:50 PM on Sunday 21 Dec 2014 (Local Time) from KNQA Reporting Station
Few Clouds Few Clouds  
Wind Chill: 45°   Ceiling: Unl
Heat Index: 45°   Visibility: 10mi
Dew Point: 34°   Wind: 3mph
Humidity: 66%   Direction: 70°ENE
Pressure: 30"   Gusts: NA
Location:  35.38°N, 89.57°W
Report Text: KNQA 220050Z 07003KT 10SM FEW150 07/01 A3000
Loading
Personal Weather Stations






























Interactive Weather Map New forecast layout! Learn more

10-Day Weather Forecast

Advertisements
Track Severe Weather on mobile